sensor_id;sensor_type;location;lat;lon;timestamp;temperature;humidity
5617;DHT22;2830;50.656;7.568;2024-03-08T00:00:10;0.80;99.90
5617;DHT22;2830;50.656;7.568;2024-03-08T00:02:42;0.80;99.90
5617;DHT22;2830;50.656;7.568;2024-03-08T00:05:09;0.80;99.90
5617;DHT22;2830;50.656;7.568;2024-03-08T00:07:40;0.70;99.90
5617;DHT22;2830;50.656;7.568;2024-03-08T00:10:09;0.70;99.90
5617;DHT22;2830;50.656;7.568;2024-03-08T00:12:43;0.70;99.90
5617;DHT22;2830;50.656;7.568;2024-03-08T00:15:12;0.70;99.90
5617;DHT22;2830;50.656;7.568;2024-03-08T00:17:43;0.80;99.90
5617;DHT22;2830;50.656;7.568;2024-03-08T00:20:10;0.80;99.90
5617;DHT22;2830;50.656;7.568;2024-03-08T00:22:38;0.90;99.90
5617;DHT22;2830;50.656;7.568;2024-03-08T00:25:06;0.90;99.90
5617;DHT22;2830;50.656;7.568;2024-03-08T00:27:36;0.80;99.90
5617;DHT22;2830;50.656;7.568;2024-03-08T00:30:03;0.90;99.90
5617;DHT22;2830;50.656;7.568;2024-03-08T00:32:31;0.90;99.90
5617;DHT22;2830;50.656;7.568;2024-03-08T00:34:58;0.90;99.90
5617;DHT22;2830;50.656;7.568;2024-03-08T00:37:25;0.80;99.90
5617;DHT22;2830;50.656;7.568;2024-03-08T00:39:53;0.70;99.90
5617;DHT22;2830;50.656;7.568;2024-03-08T00:42:20;0.60;99.90
5617;DHT22;2830;50.656;7.568;2024-03-08T00:44:47;0.60;99.90
5617;DHT22;2830;50.656;7.568;2024-03-08T00:47:18;0.60;99.90
5617;DHT22;2830;50.656;7.568;2024-03-08T00:49:45;0.60;99.90
5617;DHT22;2830;50.656;7.568;2024-03-08T00:52:14;0.70;99.90
5617;DHT22;2830;50.656;7.568;2024-03-08T00:54:41;0.70;99.90
5617;DHT22;2830;50.656;7.568;2024-03-08T00:57:10;0.70;99.90
5617;DHT22;2830;50.656;7.568;2024-03-08T00:59:38;0.60;99.90
5617;DHT22;2830;50.656;7.568;2024-03-08T01:02:05;0.50;99.90
5617;DHT22;2830;50.656;7.568;2024-03-08T01:04:32;0.40;99.90
5617;DHT22;2830;50.656;7.568;2024-03-08T01:07:00;0.40;99.90
5617;DHT22;2830;50.656;7.568;2024-03-08T01:09:27;0.40;99.90
5617;DHT22;2830;50.656;7.568;2024-03-08T01:11:55;0.30;99.90
5617;DHT22;2830;50.656;7.568;2024-03-08T01:14:23;0.30;99.90
5617;DHT22;2830;50.656;7.568;2024-03-08T01:16:50;0.30;99.90
5617;DHT22;2830;50.656;7.568;2024-03-08T01:19:18;0.30;99.90
5617;DHT22;2830;50.656;7.568;2024-03-08T01:21:44;0.30;99.90
5617;DHT22;2830;50.656;7.568;2024-03-08T01:24:11;0.30;99.90
5617;DHT22;2830;50.656;7.568;2024-03-08T01:26:38;0.30;99.90
5617;DHT22;2830;50.656;7.568;2024-03-08T01:29:05;0.30;99.90
5617;DHT22;2830;50.656;7.568;2024-03-08T01:31:32;0.30;99.90
5617;DHT22;2830;50.656;7.568;2024-03-08T01:33:59;0.30;99.90
5617;DHT22;2830;50.656;7.568;2024-03-08T01:36:26;0.40;99.90
5617;DHT22;2830;50.656;7.568;2024-03-08T01:38:53;0.30;99.90
5617;DHT22;2830;50.656;7.568;2024-03-08T01:41:21;0.30;99.90
5617;DHT22;2830;50.656;7.568;2024-03-08T01:43:48;0.20;99.90
5617;DHT22;2830;50.656;7.568;2024-03-08T01:46:19;0.20;99.90
5617;DHT22;2830;50.656;7.568;2024-03-08T01:48:49;0.20;99.90
5617;DHT22;2830;50.656;7.568;2024-03-08T01:51:18;0.20;99.90
5617;DHT22;2830;50.656;7.568;2024-03-08T01:53:46;0.20;99.90
5617;DHT22;2830;50.656;7.568;2024-03-08T01:56:14;0.10;99.90
5617;DHT22;2830;50.656;7.568;2024-03-08T01:58:42;0.10;99.90
5617;DHT22;2830;50.656;7.568;2024-03-08T02:01:12;0.10;99.90
5617;DHT22;2830;50.656;7.568;2024-03-08T02:03:42;0.10;99.90
5617;DHT22;2830;50.656;7.568;2024-03-08T02:06:14;0.00;99.90
5617;DHT22;2830;50.656;7.568;2024-03-08T02:08:43;0.00;99.90
5617;DHT22;2830;50.656;7.568;2024-03-08T02:11:11;-0.10;99.90
5617;DHT22;2830;50.656;7.568;2024-03-08T02:13:39;-0.10;99.90
5617;DHT22;2830;50.656;7.568;2024-03-08T02:16:06;-0.10;99.90
5617;DHT22;2830;50.656;7.568;2024-03-08T02:18:35;-0.20;99.90
5617;DHT22;2830;50.656;7.568;2024-03-08T02:21:04;-0.20;99.90
5617;DHT22;2830;50.656;7.568;2024-03-08T02:23:32;-0.20;99.90
5617;DHT22;2830;50.656;7.568;2024-03-08T02:26:00;-0.20;99.90
5617;DHT22;2830;50.656;7.568;2024-03-08T02:28:27;-0.20;99.90
5617;DHT22;2830;50.656;7.568;2024-03-08T02:30:55;-0.20;99.90
5617;DHT22;2830;50.656;7.568;2024-03-08T02:33:23;-0.20;99.90
5617;DHT22;2830;50.656;7.568;2024-03-08T02:35:51;-0.10;99.90
5617;DHT22;2830;50.656;7.568;2024-03-08T02:38:20;0.10;99.90
5617;DHT22;2830;50.656;7.568;2024-03-08T02:40:48;0.30;99.90
5617;DHT22;2830;50.656;7.568;2024-03-08T02:43:17;0.50;99.90
5617;DHT22;2830;50.656;7.568;2024-03-08T02:45:44;0.60;99.90
5617;DHT22;2830;50.656;7.568;2024-03-08T02:48:15;0.70;99.90
5617;DHT22;2830;50.656;7.568;2024-03-08T02:50:45;0.80;99.90
5617;DHT22;2830;50.656;7.568;2024-03-08T02:53:13;0.80;99.90
5617;DHT22;2830;50.656;7.568;2024-03-08T02:55:41;0.80;99.90
5617;DHT22;2830;50.656;7.568;2024-03-08T02:58:09;0.80;99.90
5617;DHT22;2830;50.656;7.568;2024-03-08T03:00:38;0.80;99.90
5617;DHT22;2830;50.656;7.568;2024-03-08T03:03:08;0.70;99.90
5617;DHT22;2830;50.656;7.568;2024-03-08T03:05:35;0.70;99.90
5617;DHT22;2830;50.656;7.568;2024-03-08T03:08:02;0.60;99.90
5617;DHT22;2830;50.656;7.568;2024-03-08T03:10:36;0.60;99.90
5617;DHT22;2830;50.656;7.568;2024-03-08T03:13:03;0.50;99.90
5617;DHT22;2830;50.656;7.568;2024-03-08T03:15:31;0.40;99.90
5617;DHT22;2830;50.656;7.568;2024-03-08T03:18:01;0.40;99.90
5617;DHT22;2830;50.656;7.568;2024-03-08T03:20:28;0.30;99.90
5617;DHT22;2830;50.656;7.568;2024-03-08T03:23:08;0.30;99.90
5617;DHT22;2830;50.656;7.568;2024-03-08T03:25:35;0.20;99.90
5617;DHT22;2830;50.656;7.568;2024-03-08T03:28:03;0.10;99.90
5617;DHT22;2830;50.656;7.568;2024-03-08T03:30:31;0.10;99.90
5617;DHT22;2830;50.656;7.568;2024-03-08T03:33:01;-0.10;99.90
5617;DHT22;2830;50.656;7.568;2024-03-08T03:35:28;-0.10;99.90
5617;DHT22;2830;50.656;7.568;2024-03-08T03:37:58;-0.10;99.90
5617;DHT22;2830;50.656;7.568;2024-03-08T03:40:38;-0.10;99.90
5617;DHT22;2830;50.656;7.568;2024-03-08T03:43:05;-0.20;99.90
5617;DHT22;2830;50.656;7.568;2024-03-08T03:45:33;-0.20;99.90
5617;DHT22;2830;50.656;7.568;2024-03-08T03:48:05;-0.20;99.90
5617;DHT22;2830;50.656;7.568;2024-03-08T03:50:34;-0.30;99.90
5617;DHT22;2830;50.656;7.568;2024-03-08T03:53:03;-0.30;99.90
5617;DHT22;2830;50.656;7.568;2024-03-08T03:55:31;-0.30;99.90
5617;DHT22;2830;50.656;7.568;2024-03-08T03:57:57;-0.40;99.90
5617;DHT22;2830;50.656;7.568;2024-03-08T04:00:26;-0.40;99.90
5617;DHT22;2830;50.656;7.568;2024-03-08T04:02:54;-0.40;99.90
5617;DHT22;2830;50.656;7.568;2024-03-08T04:05:23;-0.40;99.90
5617;DHT22;2830;50.656;7.568;2024-03-08T04:07:50;-0.40;99.90
5617;DHT22;2830;50.656;7.568;2024-03-08T04:10:16;-0.40;99.90
5617;DHT22;2830;50.656;7.568;2024-03-08T04:12:43;-0.50;99.90
5617;DHT22;2830;50.656;7.568;2024-03-08T04:15:11;-0.40;99.90
5617;DHT22;2830;50.656;7.568;2024-03-08T04:17:38;-0.40;99.90
5617;DHT22;2830;50.656;7.568;2024-03-08T04:20:06;-0.60;99.90
5617;DHT22;2830;50.656;7.568;2024-03-08T04:22:37;-0.50;99.90
5617;DHT22;2830;50.656;7.568;2024-03-08T04:25:06;-0.50;99.90
5617;DHT22;2830;50.656;7.568;2024-03-08T04:27:33;-0.60;99.90
5617;DHT22;2830;50.656;7.568;2024-03-08T04:30:02;-0.60;99.90
5617;DHT22;2830;50.656;7.568;2024-03-08T04:32:29;-0.70;99.90
5617;DHT22;2830;50.656;7.568;2024-03-08T04:34:57;-0.70;99.90
5617;DHT22;2830;50.656;7.568;2024-03-08T04:37:24;-0.70;99.90
5617;DHT22;2830;50.656;7.568;2024-03-08T04:39:52;-0.80;99.90
5617;DHT22;2830;50.656;7.568;2024-03-08T04:42:18;-0.80;99.90
5617;DHT22;2830;50.656;7.568;2024-03-08T04:44:46;-0.80;99.90
5617;DHT22;2830;50.656;7.568;2024-03-08T04:47:12;-0.80;99.90
5617;DHT22;2830;50.656;7.568;2024-03-08T04:49:39;-0.80;99.90
5617;DHT22;2830;50.656;7.568;2024-03-08T04:52:06;-0.70;99.90
5617;DHT22;2830;50.656;7.568;2024-03-08T04:54:34;-0.80;99.90
5617;DHT22;2830;50.656;7.568;2024-03-08T04:57:01;-0.80;99.90
5617;DHT22;2830;50.656;7.568;2024-03-08T04:59:32;-0.80;99.90
5617;DHT22;2830;50.656;7.568;2024-03-08T05:01:59;-0.90;99.90
5617;DHT22;2830;50.656;7.568;2024-03-08T05:04:26;-0.80;99.90
5617;DHT22;2830;50.656;7.568;2024-03-08T05:06:53;-0.80;99.90
5617;DHT22;2830;50.656;7.568;2024-03-08T05:09:20;-0.80;99.90
5617;DHT22;2830;50.656;7.568;2024-03-08T05:11:47;-0.80;99.90
5617;DHT22;2830;50.656;7.568;2024-03-08T05:14:14;-0.80;99.90
5617;DHT22;2830;50.656;7.568;2024-03-08T05:16:47;-0.90;99.90
5617;DHT22;2830;50.656;7.568;2024-03-08T05:19:18;-0.90;99.90
5617;DHT22;2830;50.656;7.568;2024-03-08T05:21:49;-0.90;99.90
5617;DHT22;2830;50.656;7.568;2024-03-08T05:24:16;-0.80;99.90
5617;DHT22;2830;50.656;7.568;2024-03-08T05:26:45;-0.80;99.90
5617;DHT22;2830;50.656;7.568;2024-03-08T05:29:13;-0.80;99.90
5617;DHT22;2830;50.656;7.568;2024-03-08T05:31:51;-0.80;99.90
5617;DHT22;2830;50.656;7.568;2024-03-08T05:34:22;-0.80;99.90
5617;DHT22;2830;50.656;7.568;2024-03-08T05:36:49;-0.70;99.90
5617;DHT22;2830;50.656;7.568;2024-03-08T05:39:18;-0.60;99.90
5617;DHT22;2830;50.656;7.568;2024-03-08T05:41:46;-0.50;99.90
5617;DHT22;2830;50.656;7.568;2024-03-08T05:44:14;-0.50;99.90
5617;DHT22;2830;50.656;7.568;2024-03-08T05:46:41;-0.40;99.90
5617;DHT22;2830;50.656;7.568;2024-03-08T05:49:07;-0.40;99.90
5617;DHT22;2830;50.656;7.568;2024-03-08T05:51:38;-0.40;99.90
5617;DHT22;2830;50.656;7.568;2024-03-08T05:54:08;-0.40;99.90
5617;DHT22;2830;50.656;7.568;2024-03-08T05:56:41;-0.40;99.90
5617;DHT22;2830;50.656;7.568;2024-03-08T05:59:10;-0.50;99.90
5617;DHT22;2830;50.656;7.568;2024-03-08T06:01:37;-0.50;99.90
5617;DHT22;2830;50.656;7.568;2024-03-08T06:04:08;-0.60;99.90
5617;DHT22;2830;50.656;7.568;2024-03-08T06:06:36;-0.60;99.90
5617;DHT22;2830;50.656;7.568;2024-03-08T06:09:04;-0.60;99.90
5617;DHT22;2830;50.656;7.568;2024-03-08T06:11:38;-0.60;99.90
5617;DHT22;2830;50.656;7.568;2024-03-08T06:14:05;-0.60;99.90
5617;DHT22;2830;50.656;7.568;2024-03-08T06:16:33;-0.70;99.90
5617;DHT22;2830;50.656;7.568;2024-03-08T06:19:00;-0.70;99.90
5617;DHT22;2830;50.656;7.568;2024-03-08T06:21:29;-0.70;99.90
5617;DHT22;2830;50.656;7.568;2024-03-08T06:23:56;-0.60;99.90
5617;DHT22;2830;50.656;7.568;2024-03-08T06:26:24;-0.70;99.90
5617;DHT22;2830;50.656;7.568;2024-03-08T06:28:56;-0.70;99.90
5617;DHT22;2830;50.656;7.568;2024-03-08T06:31:23;-0.80;99.90
5617;DHT22;2830;50.656;7.568;2024-03-08T06:33:50;-0.70;99.90
5617;DHT22;2830;50.656;7.568;2024-03-08T06:36:17;-0.70;99.90
5617;DHT22;2830;50.656;7.568;2024-03-08T06:38:51;-0.60;99.90
5617;DHT22;2830;50.656;7.568;2024-03-08T06:41:18;-0.60;99.90
5617;DHT22;2830;50.656;7.568;2024-03-08T06:43:46;-0.50;99.90
5617;DHT22;2830;50.656;7.568;2024-03-08T06:46:15;-0.50;99.90
5617;DHT22;2830;50.656;7.568;2024-03-08T06:48:42;-0.40;99.90
5617;DHT22;2830;50.656;7.568;2024-03-08T06:51:09;-0.30;99.90
5617;DHT22;2830;50.656;7.568;2024-03-08T06:53:38;-0.30;99.90
5617;DHT22;2830;50.656;7.568;2024-03-08T06:56:07;-0.20;99.90
5617;DHT22;2830;50.656;7.568;2024-03-08T06:58:35;-0.20;99.90
5617;DHT22;2830;50.656;7.568;2024-03-08T07:01:02;-0.10;99.90
5617;DHT22;2830;50.656;7.568;2024-03-08T07:03:31;-0.10;99.90
5617;DHT22;2830;50.656;7.568;2024-03-08T07:05:59;0.00;99.90
5617;DHT22;2830;50.656;7.568;2024-03-08T07:08:30;0.20;99.90
5617;DHT22;2830;50.656;7.568;2024-03-08T07:10:57;0.40;99.90
5617;DHT22;2830;50.656;7.568;2024-03-08T07:13:25;0.60;99.90
5617;DHT22;2830;50.656;7.568;2024-03-08T07:15:53;0.80;99.90
5617;DHT22;2830;50.656;7.568;2024-03-08T07:18:21;0.90;99.90
5617;DHT22;2830;50.656;7.568;2024-03-08T07:20:49;1.10;99.90
5617;DHT22;2830;50.656;7.568;2024-03-08T07:23:16;1.20;99.90
5617;DHT22;2830;50.656;7.568;2024-03-08T07:26:01;1.40;99.90
5617;DHT22;2830;50.656;7.568;2024-03-08T07:28:28;1.80;99.90
5617;DHT22;2830;50.656;7.568;2024-03-08T07:31:00;2.20;99.90
5617;DHT22;2830;50.656;7.568;2024-03-08T07:33:53;2.60;99.90
5617;DHT22;2830;50.656;7.568;2024-03-08T07:36:20;3.10;99.90
5617;DHT22;2830;50.656;7.568;2024-03-08T07:38:48;3.70;99.90
5617;DHT22;2830;50.656;7.568;2024-03-08T07:41:16;4.50;99.90
5617;DHT22;2830;50.656;7.568;2024-03-08T07:43:43;5.40;99.90
5617;DHT22;2830;50.656;7.568;2024-03-08T07:46:10;6.40;99.90
5617;DHT22;2830;50.656;7.568;2024-03-08T07:48:37;7.10;99.90
5617;DHT22;2830;50.656;7.568;2024-03-08T07:51:04;7.80;99.90
5617;DHT22;2830;50.656;7.568;2024-03-08T07:53:32;8.10;99.90
5617;DHT22;2830;50.656;7.568;2024-03-08T07:55:59;8.20;99.90
5617;DHT22;2830;50.656;7.568;2024-03-08T07:58:26;8.30;99.90
5617;DHT22;2830;50.656;7.568;2024-03-08T08:00:53;8.50;99.90
5617;DHT22;2830;50.656;7.568;2024-03-08T08:03:21;8.60;99.90
5617;DHT22;2830;50.656;7.568;2024-03-08T08:05:48;9.40;99.90
5617;DHT22;2830;50.656;7.568;2024-03-08T08:08:16;9.80;99.90
5617;DHT22;2830;50.656;7.568;2024-03-08T08:10:42;9.70;99.90
5617;DHT22;2830;50.656;7.568;2024-03-08T08:13:09;9.60;99.90
5617;DHT22;2830;50.656;7.568;2024-03-08T08:15:36;9.70;99.90
5617;DHT22;2830;50.656;7.568;2024-03-08T08:18:03;10.00;99.90
5617;DHT22;2830;50.656;7.568;2024-03-08T08:20:33;9.70;99.90
5617;DHT22;2830;50.656;7.568;2024-03-08T08:23:00;9.80;99.90
5617;DHT22;2830;50.656;7.568;2024-03-08T08:25:27;9.50;99.90
5617;DHT22;2830;50.656;7.568;2024-03-08T08:27:54;9.50;99.90
5617;DHT22;2830;50.656;7.568;2024-03-08T08:30:21;9.60;99.90
5617;DHT22;2830;50.656;7.568;2024-03-08T08:32:48;9.90;99.90
5617;DHT22;2830;50.656;7.568;2024-03-08T08:35:15;9.60;99.90
5617;DHT22;2830;50.656;7.568;2024-03-08T08:37:42;9.50;99.90
5617;DHT22;2830;50.656;7.568;2024-03-08T08:40:11;10.00;99.90
5617;DHT22;2830;50.656;7.568;2024-03-08T08:42:42;10.20;99.90
5617;DHT22;2830;50.656;7.568;2024-03-08T08:45:10;10.90;99.90
5617;DHT22;2830;50.656;7.568;2024-03-08T08:47:43;11.70;99.90
5617;DHT22;2830;50.656;7.568;2024-03-08T08:50:12;11.80;99.00
5617;DHT22;2830;50.656;7.568;2024-03-08T08:52:40;11.40;99.90
5617;DHT22;2830;50.656;7.568;2024-03-08T08:55:07;11.40;99.60
5617;DHT22;2830;50.656;7.568;2024-03-08T08:57:35;11.60;98.90
5617;DHT22;2830;50.656;7.568;2024-03-08T09:00:03;12.20;98.20
5617;DHT22;2830;50.656;7.568;2024-03-08T09:02:34;12.40;97.20
5617;DHT22;2830;50.656;7.568;2024-03-08T09:05:01;11.50;96.70
5617;DHT22;2830;50.656;7.568;2024-03-08T09:07:29;11.80;97.30
5617;DHT22;2830;50.656;7.568;2024-03-08T09:09:56;12.00;97.90
5617;DHT22;2830;50.656;7.568;2024-03-08T09:12:25;13.10;96.30
5617;DHT22;2830;50.656;7.568;2024-03-08T09:14:52;13.00;93.20
5617;DHT22;2830;50.656;7.568;2024-03-08T09:17:19;12.90;92.50
5617;DHT22;2830;50.656;7.568;2024-03-08T09:19:49;12.50;93.10
5617;DHT22;2830;50.656;7.568;2024-03-08T09:22:16;12.20;93.90
5617;DHT22;2830;50.656;7.568;2024-03-08T09:24:45;12.10;93.70
5617;DHT22;2830;50.656;7.568;2024-03-08T09:27:12;12.10;93.40
5617;DHT22;2830;50.656;7.568;2024-03-08T09:29:40;12.30;94.40
5617;DHT22;2830;50.656;7.568;2024-03-08T09:32:07;12.60;92.20
5617;DHT22;2830;50.656;7.568;2024-03-08T09:34:34;12.90;91.70
5617;DHT22;2830;50.656;7.568;2024-03-08T09:37:05;12.60;91.60
5617;DHT22;2830;50.656;7.568;2024-03-08T09:39:32;13.40;91.20
5617;DHT22;2830;50.656;7.568;2024-03-08T09:42:01;13.70;90.20
5617;DHT22;2830;50.656;7.568;2024-03-08T09:44:28;13.70;90.60
5617;DHT22;2830;50.656;7.568;2024-03-08T09:46:55;13.90;90.40
5617;DHT22;2830;50.656;7.568;2024-03-08T09:49:25;14.10;86.80
5617;DHT22;2830;50.656;7.568;2024-03-08T09:51:52;14.50;86.30
5617;DHT22;2830;50.656;7.568;2024-03-08T09:54:20;15.00;83.90
5617;DHT22;2830;50.656;7.568;2024-03-08T09:56:51;13.60;83.70
5617;DHT22;2830;50.656;7.568;2024-03-08T09:59:19;13.30;86.30
5617;DHT22;2830;50.656;7.568;2024-03-08T10:01:52;13.00;84.90
5617;DHT22;2830;50.656;7.568;2024-03-08T10:04:19;12.90;86.20
5617;DHT22;2830;50.656;7.568;2024-03-08T10:06:47;13.10;87.40
5617;DHT22;2830;50.656;7.568;2024-03-08T10:09:14;13.00;87.10
5617;DHT22;2830;50.656;7.568;2024-03-08T10:11:41;13.30;85.20
5617;DHT22;2830;50.656;7.568;2024-03-08T10:14:09;12.60;87.50
5617;DHT22;2830;50.656;7.568;2024-03-08T10:16:37;13.50;86.20
5617;DHT22;2830;50.656;7.568;2024-03-08T10:19:05;14.50;85.50
5617;DHT22;2830;50.656;7.568;2024-03-08T10:21:32;14.80;80.30
5617;DHT22;2830;50.656;7.568;2024-03-08T10:24:02;15.40;83.80
5617;DHT22;2830;50.656;7.568;2024-03-08T10:26:30;15.50;79.40
5617;DHT22;2830;50.656;7.568;2024-03-08T10:28:57;16.60;77.30
5617;DHT22;2830;50.656;7.568;2024-03-08T10:31:24;16.40;72.80
5617;DHT22;2830;50.656;7.568;2024-03-08T10:33:52;16.10;73.70
5617;DHT22;2830;50.656;7.568;2024-03-08T10:36:18;15.20;75.30
5617;DHT22;2830;50.656;7.568;2024-03-08T10:38:46;14.80;77.30
5617;DHT22;2830;50.656;7.568;2024-03-08T10:41:15;14.50;77.10
5617;DHT22;2830;50.656;7.568;2024-03-08T10:46:30;14.80;76.50
5617;DHT22;2830;50.656;7.568;2024-03-08T10:49:04;15.20;76.50
5617;DHT22;2830;50.656;7.568;2024-03-08T10:51:33;16.70;74.00
5617;DHT22;2830;50.656;7.568;2024-03-08T10:54:01;17.20;71.50
5617;DHT22;2830;50.656;7.568;2024-03-08T10:56:29;17.60;70.30
5617;DHT22;2830;50.656;7.568;2024-03-08T10:58:56;17.30;70.70
5617;DHT22;2830;50.656;7.568;2024-03-08T11:01:24;16.50;67.10
5617;DHT22;2830;50.656;7.568;2024-03-08T11:03:53;15.60;69.60
5617;DHT22;2830;50.656;7.568;2024-03-08T11:06:30;16.40;70.50
5617;DHT22;2830;50.656;7.568;2024-03-08T11:08:59;15.60;69.20
5617;DHT22;2830;50.656;7.568;2024-03-08T11:11:33;15.50;69.70
5617;DHT22;2830;50.656;7.568;2024-03-08T11:14:03;16.10;68.80
5617;DHT22;2830;50.656;7.568;2024-03-08T11:19:00;15.60;70.30
5617;DHT22;2830;50.656;7.568;2024-03-08T11:21:31;16.90;68.80
5617;DHT22;2830;50.656;7.568;2024-03-08T11:24:07;17.60;65.30
5617;DHT22;2830;50.656;7.568;2024-03-08T11:26:34;18.80;64.00
5617;DHT22;2830;50.656;7.568;2024-03-08T11:32:11;18.10;60.90
5617;DHT22;2830;50.656;7.568;2024-03-08T11:34:45;16.70;61.50
5617;DHT22;2830;50.656;7.568;2024-03-08T11:37:13;17.30;64.60
5617;DHT22;2830;50.656;7.568;2024-03-08T11:39:49;17.30;60.90
5617;DHT22;2830;50.656;7.568;2024-03-08T11:42:17;16.80;61.70
5617;DHT22;2830;50.656;7.568;2024-03-08T11:44:47;17.30;60.70
5617;DHT22;2830;50.656;7.568;2024-03-08T11:47:15;17.70;60.60
5617;DHT22;2830;50.656;7.568;2024-03-08T11:49:43;17.90;60.70
5617;DHT22;2830;50.656;7.568;2024-03-08T11:52:17;18.40;60.00
5617;DHT22;2830;50.656;7.568;2024-03-08T11:54:54;18.80;58.00
5617;DHT22;2830;50.656;7.568;2024-03-08T11:57:25;17.80;58.20
5617;DHT22;2830;50.656;7.568;2024-03-08T11:59:53;17.30;58.90
5617;DHT22;2830;50.656;7.568;2024-03-08T12:02:24;17.30;58.30
5617;DHT22;2830;50.656;7.568;2024-03-08T12:04:58;16.70;59.10
5617;DHT22;2830;50.656;7.568;2024-03-08T12:07:30;16.80;61.10
5617;DHT22;2830;50.656;7.568;2024-03-08T12:10:20;18.20;58.20
5617;DHT22;2830;50.656;7.568;2024-03-08T12:12:51;16.80;59.10
5617;DHT22;2830;50.656;7.568;2024-03-08T12:15:19;17.20;58.70
5617;DHT22;2830;50.656;7.568;2024-03-08T12:17:48;17.70;58.40
5617;DHT22;2830;50.656;7.568;2024-03-08T12:20:18;19.20;58.00
5617;DHT22;2830;50.656;7.568;2024-03-08T12:22:48;20.90;54.00
5617;DHT22;2830;50.656;7.568;2024-03-08T12:25:16;21.00;52.90
5617;DHT22;2830;50.656;7.568;2024-03-08T12:27:44;20.30;54.00
5617;DHT22;2830;50.656;7.568;2024-03-08T12:30:24;20.00;52.30
5617;DHT22;2830;50.656;7.568;2024-03-08T12:32:56;19.50;53.40
5617;DHT22;2830;50.656;7.568;2024-03-08T12:35:27;20.00;52.20
5617;DHT22;2830;50.656;7.568;2024-03-08T12:37:59;19.90;52.80
5617;DHT22;2830;50.656;7.568;2024-03-08T12:40:30;18.60;55.40
5617;DHT22;2830;50.656;7.568;2024-03-08T12:42:59;18.20;53.70
5617;DHT22;2830;50.656;7.568;2024-03-08T12:45:26;18.20;53.90
5617;DHT22;2830;50.656;7.568;2024-03-08T12:47:54;18.30;54.70
5617;DHT22;2830;50.656;7.568;2024-03-08T12:50:22;18.40;55.40
5617;DHT22;2830;50.656;7.568;2024-03-08T12:52:49;19.20;54.00
5617;DHT22;2830;50.656;7.568;2024-03-08T12:55:20;18.90;53.10
5617;DHT22;2830;50.656;7.568;2024-03-08T12:57:47;19.10;53.50
5617;DHT22;2830;50.656;7.568;2024-03-08T13:00:15;18.90;53.70
5617;DHT22;2830;50.656;7.568;2024-03-08T13:02:50;19.30;54.20
5617;DHT22;2830;50.656;7.568;2024-03-08T13:05:18;20.50;52.60
5617;DHT22;2830;50.656;7.568;2024-03-08T13:07:46;20.30;51.20
5617;DHT22;2830;50.656;7.568;2024-03-08T13:10:14;21.00;50.60
5617;DHT22;2830;50.656;7.568;2024-03-08T13:12:42;19.60;51.20
5617;DHT22;2830;50.656;7.568;2024-03-08T13:15:10;19.70;51.10
5617;DHT22;2830;50.656;7.568;2024-03-08T13:17:48;18.80;52.90
5617;DHT22;2830;50.656;7.568;2024-03-08T13:20:15;19.20;52.20
5617;DHT22;2830;50.656;7.568;2024-03-08T13:22:56;18.20;52.40
5617;DHT22;2830;50.656;7.568;2024-03-08T13:25:25;17.20;54.40
5617;DHT22;2830;50.656;7.568;2024-03-08T13:27:53;16.30;55.70
5617;DHT22;2830;50.656;7.568;2024-03-08T13:30:23;15.60;56.50
5617;DHT22;2830;50.656;7.568;2024-03-08T13:32:53;15.30;57.50
5617;DHT22;2830;50.656;7.568;2024-03-08T13:35:20;14.60;59.40
5617;DHT22;2830;50.656;7.568;2024-03-08T13:37:54;13.80;59.70
5617;DHT22;2830;50.656;7.568;2024-03-08T13:40:22;13.80;60.70
5617;DHT22;2830;50.656;7.568;2024-03-08T13:42:49;13.90;61.50
5617;DHT22;2830;50.656;7.568;2024-03-08T13:45:16;13.90;62.60
5617;DHT22;2830;50.656;7.568;2024-03-08T13:47:51;13.90;62.60
5617;DHT22;2830;50.656;7.568;2024-03-08T13:50:21;13.80;63.40
5617;DHT22;2830;50.656;7.568;2024-03-08T13:52:50;13.60;63.60
5617;DHT22;2830;50.656;7.568;2024-03-08T13:55:22;13.30;64.20
5617;DHT22;2830;50.656;7.568;2024-03-08T13:57:50;12.90;65.20
5617;DHT22;2830;50.656;7.568;2024-03-08T14:00:20;12.80;65.50
5617;DHT22;2830;50.656;7.568;2024-03-08T14:02:52;12.60;67.10
5617;DHT22;2830;50.656;7.568;2024-03-08T14:05:20;12.70;68.40
5617;DHT22;2830;50.656;7.568;2024-03-08T14:07:48;12.60;66.70
5617;DHT22;2830;50.656;7.568;2024-03-08T14:10:17;12.50;68.90
5617;DHT22;2830;50.656;7.568;2024-03-08T14:12:47;12.40;69.20
5617;DHT22;2830;50.656;7.568;2024-03-08T14:15:16;12.50;70.90
5617;DHT22;2830;50.656;7.568;2024-03-08T14:17:43;12.50;70.50
5617;DHT22;2830;50.656;7.568;2024-03-08T14:20:14;12.50;69.10
5617;DHT22;2830;50.656;7.568;2024-03-08T14:22:41;12.10;70.30
5617;DHT22;2830;50.656;7.568;2024-03-08T14:25:08;11.80;70.60
5617;DHT22;2830;50.656;7.568;2024-03-08T14:27:45;11.70;71.50
5617;DHT22;2830;50.656;7.568;2024-03-08T14:30:12;11.40;73.40
5617;DHT22;2830;50.656;7.568;2024-03-08T14:32:40;11.20;73.50
5617;DHT22;2830;50.656;7.568;2024-03-08T14:35:08;11.10;73.50
5617;DHT22;2830;50.656;7.568;2024-03-08T14:37:38;11.20;74.30
5617;DHT22;2830;50.656;7.568;2024-03-08T14:40:06;11.30;74.70
5617;DHT22;2830;50.656;7.568;2024-03-08T14:42:33;11.30;74.90
5617;DHT22;2830;50.656;7.568;2024-03-08T14:45:00;11.20;74.20
5617;DHT22;2830;50.656;7.568;2024-03-08T14:47:27;11.10;74.10
5617;DHT22;2830;50.656;7.568;2024-03-08T14:49:55;11.00;75.40
5617;DHT22;2830;50.656;7.568;2024-03-08T14:52:22;10.90;75.60
5617;DHT22;2830;50.656;7.568;2024-03-08T14:54:56;11.00;78.00
5617;DHT22;2830;50.656;7.568;2024-03-08T14:57:23;11.00;78.20
5617;DHT22;2830;50.656;7.568;2024-03-08T14:59:50;11.10;77.50
5617;DHT22;2830;50.656;7.568;2024-03-08T15:02:17;11.10;78.20
5617;DHT22;2830;50.656;7.568;2024-03-08T15:04:47;11.00;79.20
5617;DHT22;2830;50.656;7.568;2024-03-08T15:07:24;11.00;79.20
5617;DHT22;2830;50.656;7.568;2024-03-08T15:09:56;10.90;80.40
5617;DHT22;2830;50.656;7.568;2024-03-08T15:12:24;10.80;80.40
5617;DHT22;2830;50.656;7.568;2024-03-08T15:14:53;10.70;80.40
5617;DHT22;2830;50.656;7.568;2024-03-08T15:17:22;10.70;79.80
5617;DHT22;2830;50.656;7.568;2024-03-08T15:19:49;10.60;80.40
5617;DHT22;2830;50.656;7.568;2024-03-08T15:22:17;10.60;81.20
5617;DHT22;2830;50.656;7.568;2024-03-08T15:24:44;10.60;82.20
5617;DHT22;2830;50.656;7.568;2024-03-08T15:27:12;10.70;82.20
5617;DHT22;2830;50.656;7.568;2024-03-08T15:29:39;10.80;83.20
5617;DHT22;2830;50.656;7.568;2024-03-08T15:32:06;10.60;81.80
5617;DHT22;2830;50.656;7.568;2024-03-08T15:34:36;10.60;82.80
5617;DHT22;2830;50.656;7.568;2024-03-08T15:37:05;10.50;83.40
5617;DHT22;2830;50.656;7.568;2024-03-08T15:39:33;10.50;83.30
5617;DHT22;2830;50.656;7.568;2024-03-08T15:42:01;10.40;83.40
5617;DHT22;2830;50.656;7.568;2024-03-08T15:44:27;10.30;84.60
5617;DHT22;2830;50.656;7.568;2024-03-08T15:46:55;10.30;85.00
5617;DHT22;2830;50.656;7.568;2024-03-08T15:49:23;10.30;86.80
5617;DHT22;2830;50.656;7.568;2024-03-08T15:51:53;10.40;86.10
5617;DHT22;2830;50.656;7.568;2024-03-08T15:54:20;10.40;87.40
5617;DHT22;2830;50.656;7.568;2024-03-08T15:56:48;10.30;86.00
5617;DHT22;2830;50.656;7.568;2024-03-08T15:59:15;10.30;85.80
5617;DHT22;2830;50.656;7.568;2024-03-08T16:01:43;10.20;86.90
5617;DHT22;2830;50.656;7.568;2024-03-08T16:04:18;10.30;86.80
5617;DHT22;2830;50.656;7.568;2024-03-08T16:06:47;10.30;86.70
5617;DHT22;2830;50.656;7.568;2024-03-08T16:09:14;10.30;87.60
5617;DHT22;2830;50.656;7.568;2024-03-08T16:11:42;10.20;87.70
5617;DHT22;2830;50.656;7.568;2024-03-08T16:14:11;10.20;88.30
5617;DHT22;2830;50.656;7.568;2024-03-08T16:16:38;10.20;88.60
5617;DHT22;2830;50.656;7.568;2024-03-08T16:19:06;10.10;89.70
5617;DHT22;2830;50.656;7.568;2024-03-08T16:21:34;10.10;89.30
5617;DHT22;2830;50.656;7.568;2024-03-08T16:24:03;9.90;89.00